createdAt,value
2019-05-23T00:01:49.160Z,12.53
2019-05-23T00:04:35.713Z,12.31
2019-05-23T00:07:07.301Z,12.34
2019-05-23T00:09:37.193Z,12.21
2019-05-23T00:12:10.124Z,12.10
2019-05-23T00:14:47.071Z,12.10
2019-05-23T00:17:18.683Z,11.99
2019-05-23T00:19:50.091Z,12.02
2019-05-23T00:22:19.889Z,11.91
2019-05-23T00:24:50.420Z,11.83
2019-05-23T00:27:21.784Z,11.74
2019-05-23T00:29:52.103Z,11.90
2019-05-23T00:32:29.703Z,11.88
2019-05-23T00:34:59.904Z,11.71
2019-05-23T00:37:31.700Z,11.79
2019-05-23T00:40:02.810Z,11.69
2019-05-23T00:42:33.071Z,11.57
2019-05-23T00:45:04.439Z,11.59
2019-05-23T00:47:34.732Z,11.55
2019-05-23T00:50:08.623Z,11.56
2019-05-23T00:52:39.868Z,11.58
2019-05-23T00:55:11.058Z,11.50
2019-05-23T00:57:41.696Z,11.62
2019-05-23T01:00:14.930Z,11.57
2019-05-23T01:02:46.483Z,11.50
2019-05-23T01:05:16.587Z,11.59
2019-05-23T01:07:46.237Z,11.45
2019-05-23T01:10:18.073Z,11.33
2019-05-23T01:12:48.018Z,11.43
2019-05-23T01:15:18.762Z,11.45
2019-05-23T01:17:49.310Z,11.22
2019-05-23T01:20:20.877Z,11.22
2019-05-23T01:22:51.156Z,11.07
2019-05-23T01:25:21.437Z,11.11
2019-05-23T01:27:51.298Z,11.19
2019-05-23T01:30:38.137Z,11.14
2019-05-23T01:33:08.216Z,11.05
2019-05-23T01:35:38.738Z,11.02
2019-05-23T01:38:10.608Z,11.18
2019-05-23T01:40:41.347Z,11.12
2019-05-23T01:43:12.094Z,11.14
2019-05-23T01:45:41.855Z,11.09
2019-05-23T01:48:11.977Z,10.89
2019-05-23T01:50:42.210Z,10.93
2019-05-23T01:53:13.425Z,10.77
2019-05-23T01:55:44.345Z,10.77
2019-05-23T01:58:14.735Z,10.94
2019-05-23T02:00:44.380Z,10.83
2019-05-23T02:03:14.858Z,10.76
2019-05-23T02:05:45.080Z,10.61
2019-05-23T02:08:16.145Z,10.49
2019-05-23T02:10:46.766Z,10.55
2019-05-23T02:13:16.511Z,10.61
2019-05-23T02:15:46.737Z,10.60
2019-05-23T02:18:18.858Z,10.43
2019-05-23T02:20:48.978Z,10.44
2019-05-23T02:23:19.682Z,10.48
2019-05-23T02:25:49.911Z,10.53
2019-05-23T02:28:20.326Z,10.47
2019-05-23T02:30:50.550Z,10.65
2019-05-23T02:33:20.463Z,10.71
2019-05-23T02:35:50.067Z,10.79
2019-05-23T02:38:21.679Z,10.63
2019-05-23T02:41:02.210Z,10.58
2019-05-23T02:43:36.194Z,10.54
2019-05-23T02:46:08.075Z,10.51
2019-05-23T02:48:45.915Z,10.35
2019-05-23T02:51:19.654Z,10.27
2019-05-23T02:53:53.807Z,10.12
2019-05-23T02:56:25.411Z,10.23
2019-05-23T02:58:59.321Z,10.28
2019-05-23T03:01:36.372Z,10.11
2019-05-23T03:04:17.635Z,10.05
2019-05-23T03:06:48.271Z,10.00
2019-05-23T03:09:19.568Z,10.02
2019-05-23T03:11:52.425Z,9.97
2019-05-23T03:14:22.478Z,10.04
2019-05-23T03:16:54.332Z,10.20
2019-05-23T03:19:34.260Z,10.25
2019-05-23T03:22:18.517Z,10.24
2019-05-23T03:24:49.736Z,10.30
2019-05-23T03:27:19.949Z,10.02
2019-05-23T03:29:49.977Z,9.90
2019-05-23T03:32:38.296Z,9.85
2019-05-23T03:35:06.033Z,9.64
2019-05-23T03:37:36.380Z,9.46
2019-05-23T03:40:08.401Z,9.57
2019-05-23T03:42:38.724Z,9.63
2019-05-23T03:45:10.681Z,9.40
2019-05-23T03:47:40.393Z,9.41
2019-05-23T03:50:12.407Z,9.45
2019-05-23T03:52:42.137Z,9.38
2019-05-23T03:55:11.914Z,9.42
2019-05-23T03:57:42.074Z,9.34
2019-05-23T04:00:19.104Z,9.42
2019-05-23T04:02:50.334Z,9.30
2019-05-23T04:05:20.195Z,9.26
2019-05-23T04:07:50.172Z,9.27
2019-05-23T04:10:20.596Z,9.26
2019-05-23T04:12:51.205Z,9.36
2019-05-23T04:15:22.724Z,9.42
2019-05-23T04:17:52.472Z,9.45
2019-05-23T04:20:22.292Z,9.42
2019-05-23T04:22:51.881Z,9.39
2019-05-23T04:25:21.846Z,9.40
2019-05-23T04:27:53.234Z,9.48
2019-05-23T04:30:22.847Z,9.52
2019-05-23T04:32:52.420Z,9.56
2019-05-23T04:35:22.009Z,9.62
2019-05-23T04:37:52.022Z,9.56
2019-05-23T04:40:22.659Z,9.56
2019-05-23T04:42:52.309Z,9.61
2019-05-23T04:45:23.723Z,9.74
2019-05-23T04:47:53.794Z,9.83
2019-05-23T04:50:23.721Z,9.96
2019-05-23T04:52:53.532Z,10.06
2019-05-23T04:55:25.605Z,10.13
2019-05-23T04:57:55.817Z,10.02
2019-05-23T05:00:25.937Z,10.00
2019-05-23T05:02:55.749Z,10.06
2019-05-23T05:05:25.833Z,10.12
2019-05-23T05:07:55.728Z,10.23
2019-05-23T05:10:26.485Z,10.35
2019-05-23T05:12:56.249Z,10.45
2019-05-23T05:15:26.095Z,10.51
2019-05-23T05:17:56.023Z,10.64
2019-05-23T05:20:25.563Z,10.71
2019-05-23T05:22:55.533Z,10.77
2019-05-23T05:25:25.882Z,10.86
2019-05-23T05:27:55.473Z,10.91
2019-05-23T05:30:25.346Z,10.92
2019-05-23T05:32:56.448Z,10.89
2019-05-23T05:35:27.284Z,10.88
2019-05-23T05:37:57.334Z,10.92
2019-05-23T05:40:27.929Z,10.98
2019-05-23T05:42:58.313Z,10.99
2019-05-23T05:45:28.246Z,11.00
2019-05-23T05:47:57.893Z,11.09
2019-05-23T05:50:27.635Z,11.22
2019-05-23T05:52:57.478Z,11.29
2019-05-23T05:55:27.120Z,11.35
2019-05-23T05:57:57.239Z,11.49
2019-05-23T06:00:28.893Z,11.52
2019-05-23T06:03:05.183Z,11.55
2019-05-23T06:05:42.659Z,11.52
2019-05-23T06:08:13.803Z,11.61
2019-05-23T06:10:44.967Z,11.69
2019-05-23T06:13:15.108Z,11.77
2019-05-23T06:15:44.835Z,11.83
2019-05-23T06:18:14.695Z,11.94
2019-05-23T06:20:46.678Z,11.91
2019-05-23T06:23:17.594Z,12.02
2019-05-23T06:25:47.419Z,12.10
2019-05-23T06:28:19.039Z,12.22
2019-05-23T06:30:50.333Z,12.30
2019-05-23T06:33:23.769Z,12.46
2019-05-23T06:35:52.815Z,12.56
2019-05-23T06:38:23.126Z,12.67
2019-05-23T06:40:54.508Z,12.83
2019-05-23T06:43:24.738Z,12.88
2019-05-23T06:45:55.074Z,12.98
2019-05-23T06:48:25.224Z,13.12
2019-05-23T06:50:54.839Z,13.23
2019-05-23T06:53:24.507Z,13.32
2019-05-23T06:55:54.157Z,13.45
2019-05-23T06:58:24.480Z,13.49
2019-05-23T07:00:54.743Z,13.64
2019-05-23T07:03:40.692Z,13.68
2019-05-23T07:05:56.125Z,13.77
2019-05-23T07:08:28.666Z,13.88
2019-05-23T07:10:58.535Z,14.00
2019-05-23T07:13:29.626Z,13.96
2019-05-23T07:15:59.519Z,14.05
2019-05-23T07:18:29.374Z,14.09
2019-05-23T07:20:59.042Z,14.19
2019-05-23T07:23:29.662Z,14.21
2019-05-23T07:25:59.239Z,14.29
2019-05-23T07:28:29.210Z,14.41
2019-05-23T07:30:59.198Z,14.55
2019-05-23T07:33:28.867Z,14.61
2019-05-23T07:35:58.726Z,14.68
2019-05-23T07:38:28.546Z,14.76
2019-05-23T07:40:58.662Z,14.88
2019-05-23T07:43:28.693Z,14.99
2019-05-23T07:45:59.290Z,15.07
2019-05-23T07:48:29.342Z,15.18
2019-05-23T07:51:00.196Z,15.34
2019-05-23T07:53:44.384Z,15.47
2019-05-23T07:56:25.138Z,15.58
2019-05-23T07:58:54.872Z,15.85
2019-05-23T08:01:32.599Z,15.85
2019-05-23T08:04:19.746Z,15.91
2019-05-23T08:06:34.143Z,16.01
2019-05-23T08:09:05.792Z,16.13
2019-05-23T08:11:35.638Z,16.18
2019-05-23T08:14:11.406Z,16.31
2019-05-23T08:16:39.141Z,16.39
2019-05-23T08:19:08.799Z,16.45
2019-05-23T08:21:38.406Z,16.59
2019-05-23T08:24:09.572Z,16.65
2019-05-23T08:26:40.841Z,16.68
2019-05-23T08:29:25.624Z,16.79
2019-05-23T08:31:42.397Z,16.91
2019-05-23T08:34:11.989Z,17.05
2019-05-23T08:36:41.562Z,17.13
2019-05-23T08:39:11.322Z,17.16
2019-05-23T08:41:41.115Z,17.25
2019-05-23T08:44:11.694Z,17.37
2019-05-23T08:46:41.460Z,17.47
2019-05-23T08:49:12.114Z,17.58
2019-05-23T08:51:41.764Z,17.67
2019-05-23T08:54:11.411Z,17.72
2019-05-23T08:56:41.001Z,17.77
2019-05-23T08:59:10.856Z,17.94
2019-05-23T09:01:40.603Z,18.15
2019-05-23T09:04:11.076Z,18.32
2019-05-23T09:06:41.680Z,18.36
2019-05-23T09:09:28.341Z,18.43
2019-05-23T09:11:44.938Z,18.44
2019-05-23T09:14:14.887Z,18.54
2019-05-23T09:16:44.575Z,18.64
2019-05-23T09:19:14.199Z,18.69
2019-05-23T09:21:44.109Z,18.80
2019-05-23T09:24:15.951Z,18.88
2019-05-23T09:26:47.782Z,18.88
2019-05-23T09:29:19.335Z,19.03
2019-05-23T09:31:49.176Z,19.08
2019-05-23T09:34:20.047Z,19.16
2019-05-23T09:36:49.701Z,19.21
2019-05-23T09:39:21.017Z,19.18
2019-05-23T09:41:50.762Z,19.34
2019-05-23T09:44:20.437Z,19.42
2019-05-23T09:46:50.176Z,19.47
2019-05-23T09:49:19.839Z,19.56
2019-05-23T09:51:51.229Z,19.61
2019-05-23T09:54:21.291Z,19.63
2019-05-23T09:56:51.560Z,19.73
2019-05-23T09:59:21.223Z,19.83
2019-05-23T10:01:51.452Z,19.94
2019-05-23T10:04:21.184Z,19.94
2019-05-23T10:06:50.751Z,19.78
2019-05-23T10:09:20.362Z,19.91
2019-05-23T10:11:50.186Z,20.03
2019-05-23T10:14:27.632Z,19.95
2019-05-23T10:16:57.203Z,19.81
2019-05-23T10:19:27.066Z,19.73
2019-05-23T10:21:56.714Z,19.73
2019-05-23T10:24:26.498Z,19.72
2019-05-23T10:26:56.070Z,20.00
2019-05-23T10:29:25.755Z,20.16
2019-05-23T10:31:55.380Z,20.21
2019-05-23T10:34:25.053Z,20.27
2019-05-23T10:36:54.988Z,20.34
2019-05-23T10:39:24.709Z,20.41
2019-05-23T10:41:54.585Z,20.50
2019-05-23T10:44:24.180Z,20.49
2019-05-23T10:46:53.918Z,20.70
2019-05-23T10:49:23.568Z,20.71
2019-05-23T10:51:53.251Z,20.97
2019-05-23T10:54:23.197Z,20.89
2019-05-23T10:56:52.904Z,20.85
2019-05-23T10:59:22.942Z,20.85
2019-05-23T11:01:52.713Z,20.80
2019-05-23T11:04:22.715Z,20.73
2019-05-23T11:06:52.594Z,20.67
2019-05-23T11:09:36.673Z,20.75
2019-05-23T11:11:54.034Z,21.00
2019-05-23T11:14:23.675Z,21.26
2019-05-23T11:16:53.593Z,21.01
2019-05-23T11:19:23.220Z,20.87
2019-05-23T11:21:52.858Z,20.67
2019-05-23T11:24:22.644Z,20.67
2019-05-23T11:26:52.323Z,20.82
2019-05-23T11:29:21.913Z,20.86
2019-05-23T11:31:51.776Z,21.20
2019-05-23T11:34:22.141Z,21.53
2019-05-23T11:36:51.799Z,21.41
2019-05-23T11:39:22.600Z,21.31
2019-05-23T11:41:52.603Z,21.24
2019-05-23T11:44:22.164Z,21.40
2019-05-23T11:46:52.409Z,21.46
2019-05-23T11:49:22.143Z,21.65
2019-05-23T11:51:52.288Z,21.78
2019-05-23T11:54:23.545Z,21.94
2019-05-23T11:56:53.474Z,22.31
2019-05-23T11:59:23.243Z,22.33
2019-05-23T12:01:54.914Z,22.37
2019-05-23T12:04:24.866Z,22.07
2019-05-23T12:06:58.858Z,22.10
2019-05-23T12:09:28.969Z,22.26
2019-05-23T12:11:58.718Z,22.18
2019-05-23T12:14:28.278Z,22.21
2019-05-23T12:16:58.926Z,22.41
2019-05-23T12:19:28.997Z,22.62
2019-05-23T12:21:58.954Z,22.54
2019-05-23T12:24:28.816Z,22.33
2019-05-23T12:26:58.903Z,22.60
2019-05-23T12:29:28.618Z,22.78
2019-05-23T12:31:58.945Z,22.80
2019-05-23T12:34:28.655Z,22.54
2019-05-23T12:37:17.048Z,22.46
2019-05-23T12:39:29.733Z,22.81
2019-05-23T12:41:59.926Z,22.27
2019-05-23T12:44:29.766Z,22.63
2019-05-23T12:47:00.265Z,23.04
2019-05-23T12:49:31.550Z,22.98
2019-05-23T12:52:01.440Z,22.68
2019-05-23T12:54:31.063Z,22.33
2019-05-23T12:57:01.345Z,22.22
2019-05-23T12:59:31.113Z,22.21
2019-05-23T13:02:01.791Z,22.19
2019-05-23T13:04:31.504Z,22.16
2019-05-23T13:07:01.251Z,22.14
2019-05-23T13:09:31.084Z,21.88
2019-05-23T13:12:00.797Z,22.04
2019-05-23T13:14:30.455Z,22.17
2019-05-23T13:17:01.454Z,22.59
2019-05-23T13:19:31.871Z,22.92
2019-05-23T13:22:01.626Z,22.79
2019-05-23T13:24:50.810Z,22.76
2019-05-23T13:27:04.167Z,23.05
2019-05-23T13:29:33.795Z,22.82
2019-05-23T13:32:05.399Z,23.12
2019-05-23T13:34:35.426Z,23.02
2019-05-23T13:37:06.933Z,22.59
2019-05-23T13:39:37.017Z,22.51
2019-05-23T13:42:06.604Z,22.80
2019-05-23T13:44:36.736Z,22.87
2019-05-23T13:47:06.502Z,23.36
2019-05-23T13:49:36.469Z,23.67
2019-05-23T13:52:06.184Z,23.79
2019-05-23T13:54:37.104Z,23.72
2019-05-23T13:57:07.324Z,23.75
2019-05-23T13:59:37.725Z,23.81
2019-05-23T14:02:08.861Z,24.40
2019-05-23T14:04:39.088Z,24.69
2019-05-23T14:07:10.368Z,24.94
2019-05-23T14:09:40.542Z,24.82
2019-05-23T14:12:25.771Z,24.89
2019-05-23T14:14:41.813Z,24.51
2019-05-23T14:17:29.367Z,24.54
2019-05-23T14:19:59.155Z,24.06
2019-05-23T14:22:29.493Z,24.05
2019-05-23T14:24:59.241Z,24.16
2019-05-23T14:27:46.517Z,24.26
2019-05-23T14:30:27.860Z,24.06
2019-05-23T14:32:59.867Z,23.67
2019-05-23T14:35:31.186Z,23.65
2019-05-23T14:38:02.788Z,23.76
2019-05-23T14:40:32.507Z,24.09
2019-05-23T14:43:03.737Z,24.07
2019-05-23T14:45:35.016Z,23.82
2019-05-23T14:48:23.038Z,23.25
2019-05-23T14:51:00.332Z,23.58
2019-05-23T14:53:47.852Z,23.63
2019-05-23T14:56:18.572Z,23.86
2019-05-23T14:58:48.213Z,23.92
2019-05-23T15:01:19.208Z,24.23
2019-05-23T15:03:49.118Z,24.29
2019-05-23T15:06:19.308Z,24.06
2019-05-23T15:08:51.521Z,23.73
2019-05-23T15:11:20.564Z,23.72
2019-05-23T15:13:50.261Z,23.57
2019-05-23T15:16:20.077Z,23.50
2019-05-23T15:18:49.673Z,23.52
2019-05-23T15:21:19.655Z,23.76
2019-05-23T15:23:49.231Z,23.83
2019-05-23T15:26:23.013Z,24.02
2019-05-23T15:28:50.262Z,23.92
2019-05-23T15:31:20.443Z,24.05
2019-05-23T15:33:50.151Z,24.25
2019-05-23T15:36:19.806Z,24.34
2019-05-23T15:38:49.412Z,24.15
2019-05-23T15:41:19.288Z,23.91
2019-05-23T15:43:48.946Z,23.72
2019-05-23T15:46:18.598Z,23.32
2019-05-23T15:48:48.414Z,23.18
2019-05-23T15:51:19.652Z,22.91
2019-05-23T15:53:51.020Z,22.77
2019-05-23T15:56:38.547Z,22.69
2019-05-23T15:59:22.844Z,22.78
2019-05-23T16:02:06.002Z,23.05
2019-05-23T16:04:36.053Z,23.21
2019-05-23T16:07:06.692Z,23.45
2019-05-23T16:09:36.929Z,23.83
2019-05-23T16:12:07.570Z,24.11
2019-05-23T16:14:37.468Z,24.43
2019-05-23T16:17:07.664Z,24.61
2019-05-23T16:19:37.491Z,24.59
2019-05-23T16:22:07.619Z,24.42
2019-05-23T16:24:37.315Z,24.30
2019-05-23T16:27:07.632Z,24.06
2019-05-23T16:29:37.643Z,23.76
2019-05-23T16:32:07.292Z,23.83
2019-05-23T16:34:37.275Z,23.85
2019-05-23T16:37:07.460Z,23.79
2019-05-23T16:39:47.428Z,23.61
2019-05-23T16:42:10.161Z,23.72
2019-05-23T16:44:40.577Z,23.81
2019-05-23T16:47:10.294Z,24.23
2019-05-23T16:49:40.107Z,24.74
2019-05-23T16:52:09.684Z,24.92
2019-05-23T16:54:40.890Z,25.43
2019-05-23T16:57:26.957Z,25.14
2019-05-23T17:00:01.328Z,25.42
2019-05-23T17:02:39.054Z,24.94
2019-05-23T17:05:26.892Z,24.26
2019-05-23T17:07:58.271Z,24.42
2019-05-23T17:10:38.589Z,24.08
2019-05-23T17:13:09.971Z,23.97
2019-05-23T17:15:44.288Z,23.66
2019-05-23T17:18:15.505Z,23.44
2019-05-23T17:21:02.673Z,23.42
2019-05-23T17:23:52.139Z,23.04
2019-05-23T17:26:41.318Z,22.98
2019-05-23T17:29:21.701Z,22.76
2019-05-23T17:31:53.077Z,22.82
2019-05-23T17:34:22.912Z,22.73
2019-05-23T17:36:52.489Z,22.54
2019-05-23T17:39:24.024Z,22.47
2019-05-23T17:41:53.789Z,22.39
2019-05-23T17:44:23.428Z,22.29
2019-05-23T17:46:53.080Z,22.28
2019-05-23T17:49:22.826Z,22.15
2019-05-23T17:51:52.499Z,22.08
2019-05-23T17:54:22.497Z,21.92
2019-05-23T17:56:52.441Z,21.94
2019-05-23T17:59:22.149Z,21.94
2019-05-23T18:01:52.184Z,21.96
2019-05-23T18:04:22.173Z,21.94
2019-05-23T18:06:51.928Z,21.93
2019-05-23T18:09:21.751Z,21.86
2019-05-23T18:11:51.549Z,21.83
2019-05-23T18:14:21.246Z,21.78
2019-05-23T18:16:50.994Z,21.74
2019-05-23T18:19:21.214Z,21.60
2019-05-23T18:21:51.129Z,21.64
2019-05-23T18:24:21.329Z,21.62
2019-05-23T18:26:51.035Z,21.35
2019-05-23T18:29:20.590Z,21.25
2019-05-23T18:31:51.781Z,21.07
2019-05-23T18:34:22.449Z,20.86
2019-05-23T18:36:53.817Z,20.87
2019-05-23T18:39:24.422Z,20.83
2019-05-23T18:41:54.324Z,20.76
2019-05-23T18:44:23.899Z,20.67
2019-05-23T18:46:55.322Z,20.66
2019-05-23T18:49:25.642Z,20.38
2019-05-23T18:51:55.302Z,20.30
2019-05-23T18:54:25.173Z,20.18
2019-05-23T18:56:54.990Z,20.10
2019-05-23T18:59:24.641Z,20.01
2019-05-23T19:01:54.480Z,19.76
2019-05-23T19:04:24.241Z,19.74
2019-05-23T19:06:54.650Z,19.70
2019-05-23T19:09:26.030Z,19.45
2019-05-23T19:11:57.832Z,19.37
2019-05-23T19:14:27.471Z,19.20
2019-05-23T19:16:57.685Z,19.18
2019-05-23T19:19:27.255Z,19.10
2019-05-23T19:21:57.022Z,18.97
2019-05-23T19:24:26.675Z,18.79
2019-05-23T19:26:56.455Z,18.60
2019-05-23T19:29:26.334Z,18.44
2019-05-23T19:31:56.334Z,18.28
2019-05-23T19:34:26.338Z,18.22
2019-05-23T19:36:56.110Z,17.97
2019-05-23T19:39:26.584Z,17.81
2019-05-23T19:41:56.388Z,17.65
2019-05-23T19:44:26.062Z,17.53
2019-05-23T19:46:55.958Z,17.43
2019-05-23T19:49:27.337Z,17.30
2019-05-23T19:51:57.274Z,17.20
2019-05-23T19:54:26.912Z,17.06
2019-05-23T19:56:56.494Z,17.02
2019-05-23T19:59:26.150Z,16.88
2019-05-23T20:02:03.750Z,16.79
2019-05-23T20:04:35.037Z,16.71
2019-05-23T20:07:05.552Z,16.61
2019-05-23T20:09:35.408Z,16.55
2019-05-23T20:12:05.196Z,16.44
2019-05-23T20:14:34.849Z,16.31
2019-05-23T20:17:04.448Z,16.24
2019-05-23T20:19:34.210Z,16.14
2019-05-23T20:22:04.125Z,16.25
2019-05-23T20:24:33.712Z,16.14
2019-05-23T20:27:03.573Z,16.23
2019-05-23T20:29:33.198Z,16.11
2019-05-23T20:32:03.116Z,15.95
2019-05-23T20:34:33.073Z,15.91
2019-05-23T20:37:02.733Z,16.04
2019-05-23T20:39:32.933Z,15.93
2019-05-23T20:42:11.498Z,15.81
2019-05-23T20:44:34.206Z,15.93
2019-05-23T20:47:05.790Z,15.78
2019-05-23T20:49:35.530Z,15.66
2019-05-23T20:52:05.638Z,15.64
2019-05-23T20:54:35.405Z,15.75
2019-05-23T20:57:05.130Z,15.73
2019-05-23T20:59:36.300Z,15.65
2019-05-23T21:02:06.353Z,15.66
2019-05-23T21:04:36.213Z,15.70
2019-05-23T21:07:05.866Z,15.73
2019-05-23T21:09:35.600Z,15.73
2019-05-23T21:12:05.315Z,15.61
2019-05-23T21:14:34.989Z,15.53
2019-05-23T21:17:04.692Z,15.50
2019-05-23T21:19:34.445Z,15.45
2019-05-23T21:22:04.254Z,15.38
2019-05-23T21:24:35.607Z,15.43
2019-05-23T21:27:05.172Z,15.46
2019-05-23T21:29:34.764Z,15.30
2019-05-23T21:32:04.572Z,15.43
2019-05-23T21:34:34.226Z,15.30
2019-05-23T21:37:03.974Z,15.23
2019-05-23T21:39:33.628Z,15.13
2019-05-23T21:42:03.493Z,15.14
2019-05-23T21:44:33.074Z,15.05
2019-05-23T21:47:02.891Z,15.06
2019-05-23T21:49:32.474Z,15.09
2019-05-23T21:52:02.054Z,15.21
2019-05-23T21:54:31.622Z,15.09
2019-05-23T21:57:02.093Z,14.93
2019-05-23T21:59:31.724Z,14.87
2019-05-23T22:02:03.189Z,14.73
2019-05-23T22:04:34.755Z,14.64
2019-05-23T22:07:04.533Z,14.59
2019-05-23T22:09:34.416Z,14.50
2019-05-23T22:12:04.461Z,14.54
2019-05-23T22:14:34.107Z,14.47
2019-05-23T22:17:04.007Z,14.62
2019-05-23T22:19:34.237Z,14.47
2019-05-23T22:22:04.011Z,14.48
2019-05-23T22:24:33.705Z,14.45
2019-05-23T22:27:03.358Z,14.67
2019-05-23T22:29:33.058Z,14.64
2019-05-23T22:32:02.655Z,14.73
2019-05-23T22:34:36.768Z,14.78
2019-05-23T22:37:08.157Z,14.67
2019-05-23T22:39:37.859Z,14.65
2019-05-23T22:42:08.148Z,14.62
2019-05-23T22:44:37.785Z,14.62
2019-05-23T22:47:07.451Z,14.65
2019-05-23T22:49:37.006Z,14.79
2019-05-23T22:52:06.675Z,14.62
2019-05-23T22:54:36.301Z,14.69
2019-05-23T22:57:05.938Z,14.63
2019-05-23T22:59:35.596Z,14.93
2019-05-23T23:02:06.892Z,14.74
2019-05-23T23:04:36.538Z,14.72
2019-05-23T23:07:06.194Z,14.75
2019-05-23T23:09:35.779Z,14.80
2019-05-23T23:12:05.528Z,14.74
2019-05-23T23:14:35.288Z,14.69
2019-05-23T23:17:05.003Z,14.64
2019-05-23T23:19:34.735Z,14.62
2019-05-23T23:24:40.049Z,14.54
2019-05-23T23:27:11.306Z,14.66
2019-05-23T23:29:41.604Z,14.52
2019-05-23T23:32:11.408Z,14.51
2019-05-23T23:34:41.115Z,14.65
2019-05-23T23:37:10.793Z,14.59
2019-05-23T23:39:40.367Z,14.52
2019-05-23T23:42:11.158Z,14.33
2019-05-23T23:44:39.966Z,14.24
2019-05-23T23:47:27.335Z,14.18
2019-05-23T23:50:14.344Z,14.31
2019-05-23T23:53:02.272Z,14.25
2019-05-23T23:55:50.027Z,14.25
2019-05-23T23:58:18.964Z,14.16
